sensor_id;sensor_type;location;lat;lon;timestamp;pressure;altitude;pressure_sealevel;temperature;humidity
20860;BME280;10590;48.154;11.514;2023-02-18T00:04:48;96549.81;;;10.69;68.41
20860;BME280;10590;48.154;11.514;2023-02-18T00:09:51;96540.97;;;10.55;68.70
20860;BME280;10590;48.154;11.514;2023-02-18T00:14:57;96538.81;;;10.57;69.02
20860;BME280;10590;48.154;11.514;2023-02-18T00:19:59;96528.41;;;10.55;69.17
20860;BME280;10590;48.154;11.514;2023-02-18T00:25:02;96524.16;;;10.54;69.26
20860;BME280;10590;48.154;11.514;2023-02-18T00:30:05;96512.88;;;10.43;69.60
20860;BME280;10590;48.154;11.514;2023-02-18T00:35:08;96515.47;;;10.30;69.80
20860;BME280;10590;48.154;11.514;2023-02-18T00:40:12;96525.06;;;10.31;70.26
20860;BME280;10590;48.154;11.514;2023-02-18T00:45:18;96513.38;;;10.27;70.27
20860;BME280;10590;48.154;11.514;2023-02-18T00:50:20;96518.78;;;10.21;70.63
20860;BME280;10590;48.154;11.514;2023-02-18T00:55:23;96518.72;;;10.27;70.43
20860;BME280;10590;48.154;11.514;2023-02-18T01:00:25;96530.47;;;10.26;70.73
20860;BME280;10590;48.154;11.514;2023-02-18T01:05:28;96506.25;;;10.22;70.76
20860;BME280;10590;48.154;11.514;2023-02-18T01:10:32;96508.16;;;10.16;71.08
20860;BME280;10590;48.154;11.514;2023-02-18T01:15:34;96505.66;;;10.25;71.26
20860;BME280;10590;48.154;11.514;2023-02-18T01:20:37;96500.91;;;10.22;71.54
20860;BME280;10590;48.154;11.514;2023-02-18T01:25:41;96496.38;;;10.04;71.83
20860;BME280;10590;48.154;11.514;2023-02-18T01:30:42;96503.00;;;10.06;72.07
20860;BME280;10590;48.154;11.514;2023-02-18T01:35:45;96482.59;;;9.97;72.00
20860;BME280;10590;48.154;11.514;2023-02-18T01:40:49;96487.94;;;9.97;72.51
20860;BME280;10590;48.154;11.514;2023-02-18T01:45:58;96505.88;;;9.91;72.97
20860;BME280;10590;48.154;11.514;2023-02-18T01:51:05;96482.13;;;9.76;73.30
20860;BME280;10590;48.154;11.514;2023-02-18T01:56:13;96493.63;;;9.90;73.31
20860;BME280;10590;48.154;11.514;2023-02-18T02:01:17;96481.38;;;9.89;73.40
20860;BME280;10590;48.154;11.514;2023-02-18T02:06:20;96466.19;;;9.89;73.66
20860;BME280;10590;48.154;11.514;2023-02-18T02:11:34;96479.66;;;9.98;73.86
20860;BME280;10590;48.154;11.514;2023-02-18T02:16:46;96477.19;;;10.02;73.48
20860;BME280;10590;48.154;11.514;2023-02-18T02:22:39;96461.91;;;10.07;73.15
20860;BME280;10590;48.154;11.514;2023-02-18T02:28:19;96462.63;;;10.13;73.21
20860;BME280;10590;48.154;11.514;2023-02-18T02:33:50;96453.75;;;10.17;72.84
20860;BME280;10590;48.154;11.514;2023-02-18T02:39:03;96454.84;;;10.16;72.76
20860;BME280;10590;48.154;11.514;2023-02-18T02:44:15;96463.78;;;10.26;72.77
20860;BME280;10590;48.154;11.514;2023-02-18T02:49:31;96450.28;;;10.17;73.12
20860;BME280;10590;48.154;11.514;2023-02-18T02:54:38;96447.72;;;10.12;73.49
20860;BME280;10590;48.154;11.514;2023-02-18T02:59:47;96440.72;;;10.16;73.73
20860;BME280;10590;48.154;11.514;2023-02-18T03:04:59;96454.34;;;10.14;74.05
20860;BME280;10590;48.154;11.514;2023-02-18T03:10:17;96447.13;;;10.15;73.74
20860;BME280;10590;48.154;11.514;2023-02-18T03:15:25;96436.16;;;10.16;74.14
20860;BME280;10590;48.154;11.514;2023-02-18T03:20:34;96439.34;;;10.18;74.21
20860;BME280;10590;48.154;11.514;2023-02-18T03:25:42;96434.09;;;10.13;74.04
20860;BME280;10590;48.154;11.514;2023-02-18T03:30:47;96446.91;;;10.30;73.98
20860;BME280;10590;48.154;11.514;2023-02-18T03:35:52;96435.94;;;10.32;73.65
20860;BME280;10590;48.154;11.514;2023-02-18T03:40:56;96434.75;;;10.38;73.20
20860;BME280;10590;48.154;11.514;2023-02-18T03:46:01;96427.72;;;10.28;73.41
20860;BME280;10590;48.154;11.514;2023-02-18T03:51:04;96425.56;;;10.30;72.76
20860;BME280;10590;48.154;11.514;2023-02-18T03:56:10;96436.94;;;10.36;72.90
20860;BME280;10590;48.154;11.514;2023-02-18T04:01:12;96436.53;;;10.29;72.76
20860;BME280;10590;48.154;11.514;2023-02-18T04:06:15;96419.56;;;10.19;73.26
20860;BME280;10590;48.154;11.514;2023-02-18T04:11:18;96435.03;;;10.23;73.28
20860;BME280;10590;48.154;11.514;2023-02-18T04:16:20;96439.34;;;10.18;73.83
20860;BME280;10590;48.154;11.514;2023-02-18T04:21:21;96425.09;;;10.09;74.09
20860;BME280;10590;48.154;11.514;2023-02-18T04:26:24;96425.00;;;10.14;73.61
20860;BME280;10590;48.154;11.514;2023-02-18T04:31:26;96421.91;;;10.07;74.20
20860;BME280;10590;48.154;11.514;2023-02-18T04:36:28;96421.91;;;10.07;74.19
20860;BME280;10590;48.154;11.514;2023-02-18T04:41:31;96428.34;;;10.06;73.84
20860;BME280;10590;48.154;11.514;2023-02-18T04:46:33;96437.84;;;10.12;73.91
20860;BME280;10590;48.154;11.514;2023-02-18T04:51:34;96442.66;;;10.10;74.00
20860;BME280;10590;48.154;11.514;2023-02-18T04:56:39;96432.66;;;10.02;73.85
20860;BME280;10590;48.154;11.514;2023-02-18T05:01:41;96447.88;;;10.02;73.96
20860;BME280;10590;48.154;11.514;2023-02-18T05:06:43;96440.88;;;10.06;73.53
20860;BME280;10590;48.154;11.514;2023-02-18T05:11:46;96437.91;;;10.07;73.45
20860;BME280;10590;48.154;11.514;2023-02-18T05:16:48;96434.88;;;10.14;73.36
20860;BME280;10590;48.154;11.514;2023-02-18T05:21:49;96445.53;;;10.14;73.25
20860;BME280;10590;48.154;11.514;2023-02-18T05:26:52;96429.34;;;10.10;73.01
20860;BME280;10590;48.154;11.514;2023-02-18T05:31:54;96427.97;;;10.13;72.70
20860;BME280;10590;48.154;11.514;2023-02-18T05:36:58;96430.13;;;10.11;72.74
20860;BME280;10590;48.154;11.514;2023-02-18T05:42:01;96412.03;;;10.08;72.69
20860;BME280;10590;48.154;11.514;2023-02-18T05:47:05;96414.41;;;10.09;72.85
20860;BME280;10590;48.154;11.514;2023-02-18T05:52:07;96411.53;;;10.06;72.45
20860;BME280;10590;48.154;11.514;2023-02-18T05:57:12;96408.66;;;10.02;72.00
20860;BME280;10590;48.154;11.514;2023-02-18T06:02:15;96402.66;;;10.10;71.77
20860;BME280;10590;48.154;11.514;2023-02-18T06:07:17;96407.22;;;10.10;71.57
20860;BME280;10590;48.154;11.514;2023-02-18T06:12:25;96409.28;;;10.13;71.32
20860;BME280;10590;48.154;11.514;2023-02-18T06:17:27;96432.34;;;10.23;70.92
20860;BME280;10590;48.154;11.514;2023-02-18T06:22:30;96421.75;;;10.17;70.80
20860;BME280;10590;48.154;11.514;2023-02-18T06:27:36;96431.84;;;10.20;70.64
20860;BME280;10590;48.154;11.514;2023-02-18T06:32:38;96450.44;;;10.26;70.44
20860;BME280;10590;48.154;11.514;2023-02-18T06:37:39;96443.53;;;10.25;70.46
20860;BME280;10590;48.154;11.514;2023-02-18T06:42:45;96433.94;;;10.24;70.05
20860;BME280;10590;48.154;11.514;2023-02-18T06:47:47;96430.25;;;10.19;70.00
20860;BME280;10590;48.154;11.514;2023-02-18T06:52:53;96440.69;;;10.35;69.65
20860;BME280;10590;48.154;11.514;2023-02-18T06:57:56;96420.13;;;10.35;69.11
20860;BME280;10590;48.154;11.514;2023-02-18T07:02:58;96429.44;;;10.38;68.89
20860;BME280;10590;48.154;11.514;2023-02-18T07:08:00;96420.78;;;10.46;68.77
20860;BME280;10590;48.154;11.514;2023-02-18T07:13:05;96420.78;;;10.46;68.40
20860;BME280;10590;48.154;11.514;2023-02-18T07:18:08;96418.81;;;10.51;68.08
20860;BME280;10590;48.154;11.514;2023-02-18T07:23:10;96432.66;;;10.67;67.84
20860;BME280;10590;48.154;11.514;2023-02-18T07:28:13;96430.28;;;10.66;67.40
20860;BME280;10590;48.154;11.514;2023-02-18T07:33:15;96446.41;;;10.74;67.39
20860;BME280;10590;48.154;11.514;2023-02-18T07:38:17;96444.03;;;10.73;67.43
20860;BME280;10590;48.154;11.514;2023-02-18T07:43:21;96410.31;;;10.63;67.37
20860;BME280;10590;48.154;11.514;2023-02-18T07:48:24;96423.19;;;10.75;67.31
20860;BME280;10590;48.154;11.514;2023-02-18T07:53:26;96428.31;;;10.85;66.98
20860;BME280;10590;48.154;11.514;2023-02-18T07:58:33;96422.38;;;10.88;67.26
20860;BME280;10590;48.154;11.514;2023-02-18T08:03:35;96411.91;;;10.92;67.03
20860;BME280;10590;48.154;11.514;2023-02-18T08:08:36;96411.69;;;11.02;66.46
20860;BME280;10590;48.154;11.514;2023-02-18T08:13:39;96394.28;;;11.18;66.13
20860;BME280;10590;48.154;11.514;2023-02-18T08:18:41;96394.72;;;11.47;65.20
20860;BME280;10590;48.154;11.514;2023-02-18T08:23:43;96382.25;;;11.43;64.85
20860;BME280;10590;48.154;11.514;2023-02-18T08:28:47;96377.72;;;11.79;63.59
20860;BME280;10590;48.154;11.514;2023-02-18T08:33:49;96376.78;;;11.84;63.30
20860;BME280;10590;48.154;11.514;2023-02-18T08:38:51;96375.22;;;11.47;64.18
20860;BME280;10590;48.154;11.514;2023-02-18T08:43:54;96359.28;;;11.06;65.62
20860;BME280;10590;48.154;11.514;2023-02-18T08:48:56;96346.63;;;10.98;66.08
20860;BME280;10590;48.154;11.514;2023-02-18T08:53:57;96373.00;;;11.13;66.23
20860;BME280;10590;48.154;11.514;2023-02-18T08:59:00;96343.63;;;11.13;66.31
20860;BME280;10590;48.154;11.514;2023-02-18T09:04:02;96369.94;;;11.06;66.72
20860;BME280;10590;48.154;11.514;2023-02-18T09:09:04;96365.00;;;11.13;66.47
20860;BME280;10590;48.154;11.514;2023-02-18T09:14:07;96356.59;;;12.00;63.38
20860;BME280;10590;48.154;11.514;2023-02-18T09:19:09;96365.75;;;11.41;65.35
20860;BME280;10590;48.154;11.514;2023-02-18T09:24:11;96371.22;;;11.22;65.61
20860;BME280;10590;48.154;11.514;2023-02-18T09:29:13;96379.03;;;11.18;65.84
20860;BME280;10590;48.154;11.514;2023-02-18T09:34:15;96363.13;;;11.27;65.21
20860;BME280;10590;48.154;11.514;2023-02-18T09:39:18;96350.75;;;11.54;64.36
20860;BME280;10590;48.154;11.514;2023-02-18T09:44:25;96346.16;;;11.90;63.28
20860;BME280;10590;48.154;11.514;2023-02-18T09:49:31;96320.44;;;12.34;61.67
20860;BME280;10590;48.154;11.514;2023-02-18T09:54:33;96327.09;;;12.45;61.24
20860;BME280;10590;48.154;11.514;2023-02-18T09:59:37;96321.31;;;13.08;58.81
20860;BME280;10590;48.154;11.514;2023-02-18T10:04:40;96314.84;;;13.10;58.89
20860;BME280;10590;48.154;11.514;2023-02-18T10:09:45;96306.19;;;13.64;57.56
20860;BME280;10590;48.154;11.514;2023-02-18T10:14:51;96296.59;;;13.20;58.63
20860;BME280;10590;48.154;11.514;2023-02-18T10:19:54;96302.09;;;13.50;57.45
20860;BME280;10590;48.154;11.514;2023-02-18T10:25:01;96282.41;;;13.28;58.33
20860;BME280;10590;48.154;11.514;2023-02-18T10:30:20;96286.22;;;14.09;55.90
20860;BME280;10590;48.154;11.514;2023-02-18T10:35:28;96277.03;;;13.37;56.70
20860;BME280;10590;48.154;11.514;2023-02-18T10:40:35;96265.19;;;13.47;56.46
20860;BME280;10590;48.154;11.514;2023-02-18T10:45:47;96255.75;;;13.41;57.04
20860;BME280;10590;48.154;11.514;2023-02-18T10:50:51;96252.31;;;14.04;55.26
20860;BME280;10590;48.154;11.514;2023-02-18T10:55:53;96246.97;;;13.95;55.19
20860;BME280;10590;48.154;11.514;2023-02-18T11:00:59;96217.38;;;13.66;55.79
20860;BME280;10590;48.154;11.514;2023-02-18T11:06:04;96217.13;;;14.35;54.05
20860;BME280;10590;48.154;11.514;2023-02-18T11:11:13;96208.84;;;14.99;52.49
20860;BME280;10590;48.154;11.514;2023-02-18T11:16:20;96178.16;;;15.00;51.79
20860;BME280;10590;48.154;11.514;2023-02-18T11:21:28;96182.63;;;14.75;52.85
20860;BME280;10590;48.154;11.514;2023-02-18T11:26:32;96182.75;;;15.00;52.07
20860;BME280;10590;48.154;11.514;2023-02-18T11:31:40;96182.53;;;15.25;51.43
20860;BME280;10590;48.154;11.514;2023-02-18T11:36:44;96172.47;;;15.02;51.84
20860;BME280;10590;48.154;11.514;2023-02-18T11:41:47;96175.09;;;15.88;49.83
20860;BME280;10590;48.154;11.514;2023-02-18T11:47:00;96186.72;;;14.73;52.00
20860;BME280;10590;48.154;11.514;2023-02-18T11:52:14;96177.22;;;14.25;52.47
20860;BME280;10590;48.154;11.514;2023-02-18T11:57:18;96178.22;;;14.41;51.79
20860;BME280;10590;48.154;11.514;2023-02-18T12:02:27;96167.78;;;14.48;51.36
20860;BME280;10590;48.154;11.514;2023-02-18T12:07:40;96158.75;;;14.53;51.82
20860;BME280;10590;48.154;11.514;2023-02-18T12:12:45;96147.00;;;14.37;52.29
20860;BME280;10590;48.154;11.514;2023-02-18T12:18:09;96150.56;;;14.49;51.71
20860;BME280;10590;48.154;11.514;2023-02-18T12:23:22;96119.31;;;14.86;51.23
20860;BME280;10590;48.154;11.514;2023-02-18T12:28:37;96117.50;;;14.57;51.82
20860;BME280;10590;48.154;11.514;2023-02-18T12:33:52;96102.38;;;14.23;52.57
20860;BME280;10590;48.154;11.514;2023-02-18T12:39:10;96090.94;;;14.14;52.72
20860;BME280;10590;48.154;11.514;2023-02-18T12:44:24;96105.41;;;14.22;53.27
20860;BME280;10590;48.154;11.514;2023-02-18T12:49:48;96091.88;;;14.60;51.91
20860;BME280;10590;48.154;11.514;2023-02-18T12:55:16;96089.59;;;14.50;52.11
20860;BME280;10590;48.154;11.514;2023-02-18T13:00:42;96090.75;;;14.61;52.12
20860;BME280;10590;48.154;11.514;2023-02-18T13:05:56;96093.50;;;14.94;51.25
20860;BME280;10590;48.154;11.514;2023-02-18T13:11:13;96085.16;;;15.77;49.63
20860;BME280;10590;48.154;11.514;2023-02-18T13:16:17;96062.28;;;15.02;50.94
20860;BME280;10590;48.154;11.514;2023-02-18T13:21:23;96084.72;;;14.85;51.58
20860;BME280;10590;48.154;11.514;2023-02-18T13:26:27;96090.09;;;14.85;51.40
20860;BME280;10590;48.154;11.514;2023-02-18T13:31:40;96078.50;;;14.30;52.21
20860;BME280;10590;48.154;11.514;2023-02-18T13:36:55;96063.22;;;14.01;53.06
20860;BME280;10590;48.154;11.514;2023-02-18T13:42:25;96082.34;;;14.00;53.31
20860;BME280;10590;48.154;11.514;2023-02-18T13:47:38;96074.91;;;13.67;54.18
20860;BME280;10590;48.154;11.514;2023-02-18T13:52:42;96065.50;;;13.91;53.54
20860;BME280;10590;48.154;11.514;2023-02-18T13:57:46;96085.06;;;13.53;54.02
20860;BME280;10590;48.154;11.514;2023-02-18T14:02:56;96069.84;;;13.36;54.37
20860;BME280;10590;48.154;11.514;2023-02-18T14:08:08;96068.09;;;13.41;54.50
20860;BME280;10590;48.154;11.514;2023-02-18T14:13:38;96063.25;;;13.34;53.37
20860;BME280;10590;48.154;11.514;2023-02-18T14:18:58;96070.97;;;13.35;52.98
20860;BME280;10590;48.154;11.514;2023-02-18T14:24:03;96072.72;;;13.31;53.22
20860;BME280;10590;48.154;11.514;2023-02-18T14:29:11;96075.59;;;13.18;54.53
20860;BME280;10590;48.154;11.514;2023-02-18T14:34:44;96082.53;;;12.93;54.40
20860;BME280;10590;48.154;11.514;2023-02-18T14:39:58;96080.31;;;12.95;54.79
20860;BME280;10590;48.154;11.514;2023-02-18T14:45:12;96079.69;;;12.98;54.94
20860;BME280;10590;48.154;11.514;2023-02-18T14:50:17;96081.91;;;12.96;55.12
20860;BME280;10590;48.154;11.514;2023-02-18T14:55:23;96055.44;;;12.86;55.80
20860;BME280;10590;48.154;11.514;2023-02-18T15:00:27;96067.78;;;12.69;55.92
20860;BME280;10590;48.154;11.514;2023-02-18T15:05:31;96059.09;;;12.72;55.60
20860;BME280;10590;48.154;11.514;2023-02-18T15:10:40;96069.00;;;12.81;55.64
20860;BME280;10590;48.154;11.514;2023-02-18T15:15:47;96078.16;;;12.80;55.83
20860;BME280;10590;48.154;11.514;2023-02-18T15:20:51;96092.19;;;12.76;55.45
20860;BME280;10590;48.154;11.514;2023-02-18T15:25:54;96075.47;;;12.71;55.39
20860;BME280;10590;48.154;11.514;2023-02-18T15:30:57;96086.03;;;12.67;55.16
20860;BME280;10590;48.154;11.514;2023-02-18T15:36:03;96080.53;;;12.64;55.50
20860;BME280;10590;48.154;11.514;2023-02-18T15:41:09;96085.25;;;12.67;55.41
20860;BME280;10590;48.154;11.514;2023-02-18T15:46:13;96089.19;;;12.52;55.46
20860;BME280;10590;48.154;11.514;2023-02-18T15:51:18;96078.66;;;12.47;55.08
20860;BME280;10590;48.154;11.514;2023-02-18T15:56:28;96086.53;;;12.43;55.20
20860;BME280;10590;48.154;11.514;2023-02-18T16:01:30;96087.63;;;12.34;55.70
20860;BME280;10590;48.154;11.514;2023-02-18T16:06:36;96094.06;;;12.24;56.34
20860;BME280;10590;48.154;11.514;2023-02-18T16:11:42;96081.91;;;12.09;56.72
20860;BME280;10590;48.154;11.514;2023-02-18T16:17:02;96094.66;;;12.12;56.85
20860;BME280;10590;48.154;11.514;2023-02-18T16:22:05;96087.56;;;11.99;57.37
20860;BME280;10590;48.154;11.514;2023-02-18T16:27:15;96100.78;;;11.96;57.54
20860;BME280;10590;48.154;11.514;2023-02-18T16:32:16;96095.56;;;11.91;58.15
20860;BME280;10590;48.154;11.514;2023-02-18T16:37:18;96076.53;;;11.84;58.70
20860;BME280;10590;48.154;11.514;2023-02-18T16:42:37;96093.66;;;11.83;58.49
20860;BME280;10590;48.154;11.514;2023-02-18T16:47:40;96088.75;;;11.76;58.92
20860;BME280;10590;48.154;11.514;2023-02-18T16:52:42;96093.13;;;11.72;59.09
20860;BME280;10590;48.154;11.514;2023-02-18T16:57:46;96095.66;;;11.77;59.28
20860;BME280;10590;48.154;11.514;2023-02-18T17:02:49;96098.66;;;11.75;59.06
20860;BME280;10590;48.154;11.514;2023-02-18T17:07:51;96089.50;;;11.68;59.13
20860;BME280;10590;48.154;11.514;2023-02-18T17:12:54;96102.88;;;11.68;58.95
20860;BME280;10590;48.154;11.514;2023-02-18T17:17:57;96105.06;;;11.66;58.87
20860;BME280;10590;48.154;11.514;2023-02-18T17:23:00;96123.47;;;11.67;58.58
20860;BME280;10590;48.154;11.514;2023-02-18T17:28:04;96118.44;;;11.66;58.55
20860;BME280;10590;48.154;11.514;2023-02-18T17:33:07;96119.22;;;11.66;58.25
20860;BME280;10590;48.154;11.514;2023-02-18T17:38:15;96126.16;;;11.67;57.76
20860;BME280;10590;48.154;11.514;2023-02-18T17:43:19;96134.78;;;11.64;57.77
20860;BME280;10590;48.154;11.514;2023-02-18T17:48:25;96136.66;;;11.64;57.88
20860;BME280;10590;48.154;11.514;2023-02-18T17:53:27;96142.31;;;11.62;57.66
20860;BME280;10590;48.154;11.514;2023-02-18T17:58:41;96145.13;;;11.57;58.15
20860;BME280;10590;48.154;11.514;2023-02-18T18:03:43;96150.31;;;11.54;58.19
20860;BME280;10590;48.154;11.514;2023-02-18T18:08:46;96135.50;;;11.47;58.37
20860;BME280;10590;48.154;11.514;2023-02-18T18:13:50;96144.13;;;11.44;58.23
20860;BME280;10590;48.154;11.514;2023-02-18T18:18:52;96137.81;;;11.40;58.61
20860;BME280;10590;48.154;11.514;2023-02-18T18:23:54;96139.22;;;11.38;58.70
20860;BME280;10590;48.154;11.514;2023-02-18T18:28:57;96142.06;;;11.41;58.68
20860;BME280;10590;48.154;11.514;2023-02-18T18:34:00;96138.56;;;11.32;58.98
20860;BME280;10590;48.154;11.514;2023-02-18T18:39:01;96136.38;;;11.34;58.97
20860;BME280;10590;48.154;11.514;2023-02-18T18:44:04;96126.94;;;11.28;59.23
20860;BME280;10590;48.154;11.514;2023-02-18T18:49:06;96125.22;;;11.32;59.05
20860;BME280;10590;48.154;11.514;2023-02-18T18:54:08;96118.41;;;11.26;59.12
20860;BME280;10590;48.154;11.514;2023-02-18T18:59:13;96124.25;;;11.28;59.10
20860;BME280;10590;48.154;11.514;2023-02-18T19:04:14;96131.66;;;11.31;59.22
20860;BME280;10590;48.154;11.514;2023-02-18T19:09:16;96129.59;;;11.28;59.10
20860;BME280;10590;48.154;11.514;2023-02-18T19:14:19;96132.84;;;11.25;58.97
20860;BME280;10590;48.154;11.514;2023-02-18T19:19:22;96133.47;;;11.22;59.02
20860;BME280;10590;48.154;11.514;2023-02-18T19:24:24;96134.25;;;11.23;58.80
20860;BME280;10590;48.154;11.514;2023-02-18T19:29:27;96142.25;;;11.23;58.65
20860;BME280;10590;48.154;11.514;2023-02-18T19:34:30;96151.81;;;11.15;59.25
20860;BME280;10590;48.154;11.514;2023-02-18T19:39:33;96149.75;;;11.12;58.61
20860;BME280;10590;48.154;11.514;2023-02-18T19:44:36;96162.38;;;11.20;58.52
20860;BME280;10590;48.154;11.514;2023-02-18T19:49:38;96163.75;;;11.17;58.69
20860;BME280;10590;48.154;11.514;2023-02-18T19:54:39;96162.97;;;11.17;58.43
20860;BME280;10590;48.154;11.514;2023-02-18T19:59:45;96164.69;;;11.13;58.31
20860;BME280;10590;48.154;11.514;2023-02-18T20:04:47;96182.59;;;11.12;58.40
20860;BME280;10590;48.154;11.514;2023-02-18T20:09:50;96186.53;;;11.15;58.63
20860;BME280;10590;48.154;11.514;2023-02-18T20:14:53;96183.97;;;11.10;58.73
20860;BME280;10590;48.154;11.514;2023-02-18T20:19:55;96196.38;;;11.06;58.91
20860;BME280;10590;48.154;11.514;2023-02-18T20:24:56;96192.13;;;11.05;58.70
20860;BME280;10590;48.154;11.514;2023-02-18T20:29:59;96175.25;;;10.96;58.60
20860;BME280;10590;48.154;11.514;2023-02-18T20:35:01;96186.28;;;11.03;58.73
20860;BME280;10590;48.154;11.514;2023-02-18T20:40:04;96188.84;;;11.08;58.69
20860;BME280;10590;48.154;11.514;2023-02-18T20:45:07;96186.16;;;11.08;58.29
20860;BME280;10590;48.154;11.514;2023-02-18T20:50:09;96192.00;;;11.10;58.56
20860;BME280;10590;48.154;11.514;2023-02-18T20:55:11;96188.53;;;11.09;58.28
20860;BME280;10590;48.154;11.514;2023-02-18T21:00:16;96188.22;;;11.11;58.33
20860;BME280;10590;48.154;11.514;2023-02-18T21:05:18;96189.88;;;11.21;57.81
20860;BME280;10590;48.154;11.514;2023-02-18T21:10:20;96187.19;;;11.21;57.55
20860;BME280;10590;48.154;11.514;2023-02-18T21:15:22;96184.53;;;11.21;57.48
20860;BME280;10590;48.154;11.514;2023-02-18T21:20:24;96182.63;;;11.21;57.38
20860;BME280;10590;48.154;11.514;2023-02-18T21:25:25;96182.94;;;11.20;57.44
20860;BME280;10590;48.154;11.514;2023-02-18T21:30:32;96179.59;;;11.14;57.83
20860;BME280;10590;48.154;11.514;2023-02-18T21:35:36;96188.09;;;11.16;57.90
20860;BME280;10590;48.154;11.514;2023-02-18T21:40:37;96187.91;;;11.12;58.12
20860;BME280;10590;48.154;11.514;2023-02-18T21:45:40;96178.28;;;11.03;58.67
20860;BME280;10590;48.154;11.514;2023-02-18T21:50:42;96182.22;;;11.05;58.60
20860;BME280;10590;48.154;11.514;2023-02-18T21:55:43;96185.69;;;11.06;58.67
20860;BME280;10590;48.154;11.514;2023-02-18T22:00:55;96171.97;;;10.99;58.97
20860;BME280;10590;48.154;11.514;2023-02-18T22:05:57;96179.06;;;11.03;58.85
20860;BME280;10590;48.154;11.514;2023-02-18T22:10:58;96178.34;;;10.89;59.48
20860;BME280;10590;48.154;11.514;2023-02-18T22:16:01;96172.44;;;10.78;59.48
20860;BME280;10590;48.154;11.514;2023-02-18T22:21:05;96176.50;;;10.76;59.88
20860;BME280;10590;48.154;11.514;2023-02-18T22:26:08;96175.22;;;10.73;59.90
20860;BME280;10590;48.154;11.514;2023-02-18T22:31:11;96185.91;;;10.73;59.85
20860;BME280;10590;48.154;11.514;2023-02-18T22:36:17;96173.66;;;10.72;59.91
20860;BME280;10590;48.154;11.514;2023-02-18T22:41:21;96172.56;;;10.73;59.90
20860;BME280;10590;48.154;11.514;2023-02-18T22:46:25;96171.53;;;10.61;60.32
20860;BME280;10590;48.154;11.514;2023-02-18T22:51:29;96167.94;;;10.65;60.24
20860;BME280;10590;48.154;11.514;2023-02-18T22:56:31;96176.06;;;10.60;60.69
20860;BME280;10590;48.154;11.514;2023-02-18T23:01:37;96162.34;;;10.53;60.51
20860;BME280;10590;48.154;11.514;2023-02-18T23:06:41;96165.81;;;10.53;60.81
20860;BME280;10590;48.154;11.514;2023-02-18T23:11:44;96160.28;;;10.50;60.79
20860;BME280;10590;48.154;11.514;2023-02-18T23:16:48;96164.22;;;10.52;60.85
20860;BME280;10590;48.154;11.514;2023-02-18T23:22:09;96154.56;;;10.43;61.02
20860;BME280;10590;48.154;11.514;2023-02-18T23:27:16;96155.38;;;10.43;61.26
20860;BME280;10590;48.154;11.514;2023-02-18T23:32:19;96159.41;;;10.41;61.22
20860;BME280;10590;48.154;11.514;2023-02-18T23:37:20;96150.41;;;10.37;61.83
20860;BME280;10590;48.154;11.514;2023-02-18T23:42:42;96147.75;;;10.37;61.97
20860;BME280;10590;48.154;11.514;2023-02-18T23:47:45;96142.72;;;10.35;62.27
20860;BME280;10590;48.154;11.514;2023-02-18T23:52:47;96144.69;;;10.30;62.31
20860;BME280;10590;48.154;11.514;2023-02-18T23:57:49;96123.97;;;10.27;62.32
